createdAt,value
2023-02-07T00:00:41.427Z,662.00
2023-02-07T00:01:41.524Z,662.00
2023-02-07T00:02:41.401Z,660.00
2023-02-07T00:03:41.394Z,659.00
2023-02-07T00:04:41.394Z,659.00
2023-02-07T00:55:27.349Z,643.00
2023-02-07T00:56:28.208Z,642.00
2023-02-07T00:57:28.204Z,642.00
2023-02-07T00:58:28.187Z,643.00
2023-02-07T00:59:28.181Z,639.00
2023-02-07T01:00:28.203Z,636.00
2023-02-07T01:01:28.237Z,634.00
2023-02-07T01:02:28.158Z,634.00
2023-02-07T01:03:28.144Z,635.00
2023-02-07T01:04:28.174Z,638.00
2023-02-07T01:05:28.144Z,634.00
2023-02-07T01:06:28.186Z,634.00
2023-02-07T01:07:28.114Z,634.00
2023-02-07T01:08:28.108Z,634.00
2023-02-07T01:09:28.095Z,634.00
2023-02-07T01:10:28.103Z,636.00
2023-02-07T01:11:28.177Z,637.00
2023-02-07T01:12:28.069Z,640.00
2023-02-07T01:13:28.064Z,636.00
2023-02-07T01:14:28.058Z,637.00
2023-02-07T01:15:28.092Z,636.00
2023-02-07T01:16:28.080Z,634.00
2023-02-07T01:17:28.030Z,634.00
2023-02-07T01:18:28.020Z,637.00
2023-02-07T01:19:28.016Z,637.00
2023-02-07T01:20:28.001Z,636.00
2023-02-07T01:21:28.001Z,637.00
2023-02-07T01:22:27.988Z,637.00
2023-02-07T01:23:27.979Z,633.00
2023-02-07T01:24:27.970Z,633.00
2023-02-07T01:25:27.960Z,631.00
2023-02-07T01:26:27.955Z,630.00
2023-02-07T01:27:27.967Z,632.00
2023-02-07T01:28:27.935Z,635.00
2023-02-07T01:29:27.959Z,635.00
2023-02-07T01:30:27.922Z,633.00
2023-02-07T01:31:27.986Z,633.00
2023-02-07T01:32:27.905Z,632.00
2023-02-07T01:33:27.902Z,631.00
2023-02-07T01:34:27.899Z,629.00
2023-02-07T01:35:27.881Z,628.00
2023-02-07T01:36:27.873Z,628.00
2023-02-07T01:37:27.859Z,627.00
2023-02-07T01:38:27.852Z,625.00
2023-02-07T01:39:27.840Z,624.00
2023-02-07T01:40:27.832Z,622.00
2023-02-07T01:41:27.826Z,626.00
2023-02-07T01:42:27.825Z,627.00
2023-02-07T01:43:27.832Z,630.00
2023-02-07T01:44:27.795Z,627.00
2023-02-07T01:45:27.786Z,625.00
2023-02-07T01:46:27.808Z,621.00
2023-02-07T01:47:27.771Z,618.00
2023-02-07T01:48:27.759Z,618.00
2023-02-07T01:49:27.755Z,620.00
2023-02-07T01:50:27.744Z,620.00
2023-02-07T01:51:27.731Z,616.00
2023-02-07T01:52:27.731Z,618.00
2023-02-07T01:53:27.714Z,616.00
2023-02-07T01:54:27.710Z,614.00
2023-02-07T01:55:27.706Z,614.00
2023-02-07T01:56:31.869Z,612.00
2023-02-07T01:57:27.963Z,611.00
2023-02-07T01:58:27.803Z,612.00
2023-02-07T01:59:27.832Z,615.00
2023-02-07T02:00:27.796Z,614.00
2023-02-07T02:01:27.831Z,617.00
2023-02-07T02:02:27.864Z,619.00
2023-02-07T02:03:27.760Z,619.00
2023-02-07T02:04:27.751Z,621.00
2023-02-07T02:05:27.756Z,620.00
2023-02-07T02:06:27.740Z,617.00
2023-02-07T02:07:27.725Z,620.00
2023-02-07T02:08:27.721Z,619.00
2023-02-07T02:09:27.716Z,619.00
2023-02-07T02:10:27.706Z,617.00
2023-02-07T02:11:27.690Z,617.00
2023-02-07T02:12:27.682Z,612.00
2023-02-07T02:13:27.679Z,611.00
2023-02-07T02:14:27.670Z,612.00
2023-02-07T02:15:27.685Z,608.00
2023-02-07T02:16:27.655Z,607.00
2023-02-07T02:17:27.642Z,607.00
2023-02-07T02:18:27.628Z,608.00
2023-02-07T02:19:27.705Z,607.00
2023-02-07T02:20:27.639Z,606.00
2023-02-07T02:21:27.604Z,604.00
2023-02-07T02:22:27.603Z,606.00
2023-02-07T02:23:27.599Z,607.00
2023-02-07T02:24:27.590Z,606.00
2023-02-07T02:25:27.574Z,608.00
2023-02-07T02:26:27.568Z,606.00
2023-02-07T02:27:27.559Z,602.00
2023-02-07T02:28:27.545Z,603.00
2023-02-07T02:29:27.538Z,606.00
2023-02-07T02:30:27.602Z,605.00
2023-02-07T02:31:27.622Z,604.00
2023-02-07T02:32:27.515Z,600.00
2023-02-07T02:33:27.543Z,600.00
2023-02-07T02:34:27.505Z,601.00
2023-02-07T02:35:27.481Z,600.00
2023-02-07T02:36:27.476Z,597.00
2023-02-07T02:37:27.469Z,598.00
2023-02-07T02:38:27.467Z,598.00
2023-02-07T02:39:27.452Z,599.00
2023-02-07T02:40:27.445Z,600.00
2023-02-07T02:41:27.434Z,603.00
2023-02-07T02:42:27.457Z,601.00
2023-02-07T02:43:27.412Z,601.00
2023-02-07T02:44:27.415Z,602.00
2023-02-07T02:45:27.397Z,602.00
2023-02-07T02:46:27.424Z,601.00
2023-02-07T02:47:27.407Z,601.00
2023-02-07T02:48:27.377Z,598.00
2023-02-07T02:49:27.367Z,599.00
2023-02-07T02:50:27.358Z,597.00
2023-02-07T02:51:27.346Z,601.00
2023-02-07T02:52:40.506Z,599.00
2023-02-07T02:53:27.335Z,598.00
2023-02-07T02:54:27.333Z,600.00
2023-02-07T02:55:27.323Z,597.00
2023-02-07T02:56:27.304Z,596.00
2023-02-07T02:57:27.294Z,598.00
2023-02-07T02:58:27.288Z,597.00
2023-02-07T02:59:27.280Z,593.00
2023-02-07T03:00:27.281Z,592.00
2023-02-07T03:01:27.353Z,590.00
2023-02-07T03:02:27.251Z,588.00
2023-02-07T03:03:27.274Z,589.00
2023-02-07T03:04:27.238Z,588.00
2023-02-07T03:05:27.323Z,588.00
2023-02-07T03:06:27.221Z,590.00
2023-02-07T03:07:27.210Z,591.00
2023-02-07T03:08:27.203Z,592.00
2023-02-07T03:09:27.206Z,593.00
2023-02-07T03:10:27.225Z,591.00
2023-02-07T03:11:27.189Z,595.00
2023-02-07T03:12:27.175Z,593.00
2023-02-07T03:13:27.169Z,590.00
2023-02-07T03:14:27.166Z,589.00
2023-02-07T03:15:27.146Z,590.00
2023-02-07T03:16:27.207Z,590.00
2023-02-07T03:17:27.126Z,588.00
2023-02-07T03:18:27.121Z,587.00
2023-02-07T03:19:27.131Z,587.00
2023-02-07T03:20:27.101Z,588.00
2023-02-07T03:21:27.088Z,587.00
2023-02-07T03:22:27.087Z,587.00
2023-02-07T03:23:27.070Z,589.00
2023-02-07T03:24:27.064Z,590.00
2023-02-07T03:25:27.054Z,588.00
2023-02-07T03:26:27.045Z,585.00
2023-02-07T03:27:27.037Z,582.00
2023-02-07T03:28:27.033Z,580.00
2023-02-07T03:29:27.026Z,581.00
2023-02-07T03:30:27.064Z,581.00
2023-02-07T03:31:27.035Z,578.00
2023-02-07T03:32:26.991Z,578.00
2023-02-07T03:33:26.995Z,579.00
2023-02-07T03:34:26.980Z,579.00
2023-02-07T03:35:26.998Z,578.00
2023-02-07T03:36:26.959Z,577.00
2023-02-07T03:37:26.954Z,576.00
2023-02-07T03:38:26.936Z,572.00
2023-02-07T03:39:26.937Z,572.00
2023-02-07T03:40:26.935Z,572.00
2023-02-07T03:41:26.913Z,573.00
2023-02-07T03:42:26.915Z,575.00
2023-02-07T03:43:26.897Z,576.00
2023-02-07T03:44:26.899Z,575.00
2023-02-07T03:45:26.873Z,577.00
2023-02-07T03:46:26.905Z,577.00
2023-02-07T03:47:26.922Z,577.00
2023-02-07T03:48:26.868Z,577.00
2023-02-07T03:49:26.852Z,575.00
2023-02-07T03:50:26.840Z,575.00
2023-02-07T03:51:26.853Z,574.00
2023-02-07T03:52:26.825Z,574.00
2023-02-07T03:53:26.814Z,575.00
2023-02-07T03:54:26.803Z,578.00
2023-02-07T03:55:26.796Z,582.00
2023-02-07T03:56:26.788Z,583.00
2023-02-07T03:57:26.785Z,581.00
2023-02-07T03:58:26.772Z,578.00
2023-02-07T03:59:26.771Z,577.00
2023-02-07T04:00:26.751Z,579.00
2023-02-07T04:01:26.748Z,581.00
2023-02-07T04:02:26.821Z,580.00
2023-02-07T04:03:26.746Z,580.00
2023-02-07T04:04:26.722Z,579.00
2023-02-07T04:05:26.712Z,576.00
2023-02-07T04:06:26.703Z,579.00
2023-02-07T04:07:26.721Z,578.00
2023-02-07T04:08:27.360Z,578.00
2023-02-07T04:09:26.684Z,580.00
2023-02-07T04:10:26.675Z,580.00
2023-02-07T04:11:26.660Z,582.00
2023-02-07T04:12:26.655Z,581.00
2023-02-07T04:13:26.650Z,575.00
2023-02-07T04:14:26.639Z,574.00
2023-02-07T04:15:26.703Z,572.00
2023-02-07T04:16:26.673Z,571.00
2023-02-07T04:17:26.622Z,575.00
2023-02-07T04:18:26.600Z,575.00
2023-02-07T04:19:26.591Z,573.00
2023-02-07T04:20:26.584Z,574.00
2023-02-07T04:21:26.579Z,574.00
2023-02-07T04:22:26.564Z,573.00
2023-02-07T04:23:26.589Z,575.00
2023-02-07T04:24:26.552Z,572.00
2023-02-07T04:25:26.543Z,571.00
2023-02-07T04:26:26.536Z,570.00
2023-02-07T04:27:26.524Z,569.00
2023-02-07T04:28:26.515Z,568.00
2023-02-07T04:29:26.515Z,570.00
2023-02-07T04:30:26.519Z,570.00
2023-02-07T04:31:26.527Z,570.00
2023-02-07T04:32:26.484Z,571.00
2023-02-07T04:33:26.472Z,570.00
2023-02-07T04:34:26.474Z,567.00
2023-02-07T04:35:26.451Z,569.00
2023-02-07T04:36:26.442Z,568.00
2023-02-07T04:37:26.442Z,567.00
2023-02-07T04:38:26.445Z,570.00
2023-02-07T04:39:26.463Z,572.00
2023-02-07T04:40:26.408Z,570.00
2023-02-07T04:41:26.396Z,571.00
2023-02-07T04:42:26.392Z,573.00
2023-02-07T04:43:26.386Z,574.00
2023-02-07T04:44:26.373Z,572.00
2023-02-07T04:45:26.439Z,573.00
2023-02-07T04:46:26.357Z,573.00
2023-02-07T04:47:26.349Z,573.00
2023-02-07T04:48:26.341Z,575.00
2023-02-07T04:49:26.338Z,574.00
2023-02-07T04:50:26.326Z,573.00
2023-02-07T04:51:26.313Z,573.00
2023-02-07T04:52:26.305Z,571.00
2023-02-07T04:53:26.317Z,568.00
2023-02-07T04:54:26.289Z,565.00
2023-02-07T04:55:26.304Z,565.00
2023-02-07T04:56:26.269Z,564.00
2023-02-07T04:57:26.258Z,566.00
2023-02-07T04:58:26.260Z,567.00
2023-02-07T04:59:26.243Z,565.00
2023-02-07T05:00:26.290Z,565.00
2023-02-07T05:01:26.299Z,565.00
2023-02-07T05:02:26.222Z,567.00
2023-02-07T05:03:26.212Z,566.00
2023-02-07T05:04:26.285Z,566.00
2023-02-07T05:05:26.195Z,565.00
2023-02-07T05:06:26.188Z,565.00
2023-02-07T05:07:26.181Z,563.00
2023-02-07T05:08:26.428Z,564.00
2023-02-07T05:09:26.165Z,565.00
2023-02-07T05:10:26.208Z,564.00
2023-02-07T05:11:26.166Z,564.00
2023-02-07T05:12:26.136Z,561.00
2023-02-07T05:13:26.130Z,561.00
2023-02-07T05:14:26.119Z,559.00
2023-02-07T05:15:26.170Z,556.00
2023-02-07T05:16:26.165Z,556.00
2023-02-07T05:17:26.094Z,560.00
2023-02-07T05:18:26.085Z,560.00
2023-02-07T05:19:26.080Z,559.00
2023-02-07T05:20:26.074Z,558.00
2023-02-07T05:21:26.061Z,555.00
2023-02-07T05:22:26.051Z,553.00
2023-02-07T05:23:26.052Z,550.00
2023-02-07T05:24:26.049Z,549.00
2023-02-07T05:25:26.024Z,550.00
2023-02-07T05:26:26.018Z,551.00
2023-02-07T05:27:26.036Z,550.00
2023-02-07T05:28:26.006Z,551.00
2023-02-07T05:29:25.997Z,550.00
2023-02-07T05:30:25.991Z,550.00
2023-02-07T05:31:26.079Z,550.00
2023-02-07T05:32:26.705Z,551.00
2023-02-07T05:33:25.955Z,549.00
2023-02-07T05:34:25.952Z,550.00
2023-02-07T05:35:25.941Z,551.00
2023-02-07T05:36:25.934Z,549.00
2023-02-07T05:37:25.920Z,548.00
2023-02-07T05:38:25.918Z,551.00
2023-02-07T05:39:25.898Z,548.00
2023-02-07T05:40:26.046Z,547.00
2023-02-07T05:41:25.890Z,545.00
2023-02-07T05:42:25.876Z,545.00
2023-02-07T05:43:25.903Z,546.00
2023-02-07T05:44:25.858Z,546.00
2023-02-07T05:45:25.864Z,547.00
2023-02-07T05:46:25.884Z,545.00
2023-02-07T05:47:25.829Z,545.00
2023-02-07T05:48:25.820Z,549.00
2023-02-07T05:49:25.816Z,549.00
2023-02-07T05:50:25.807Z,549.00
2023-02-07T05:51:25.805Z,548.00
2023-02-07T05:52:25.788Z,546.00
2023-02-07T05:53:25.786Z,545.00
2023-02-07T05:54:25.770Z,546.00
2023-02-07T05:55:25.786Z,546.00
2023-02-07T05:56:25.759Z,542.00
2023-02-07T05:57:25.750Z,540.00
2023-02-07T05:58:25.736Z,539.00
2023-02-07T05:59:25.751Z,539.00
2023-02-07T06:00:25.744Z,538.00
2023-02-07T06:01:25.713Z,539.00
2023-02-07T06:02:25.756Z,538.00
2023-02-07T06:03:25.700Z,541.00
2023-02-07T06:04:25.682Z,542.00
2023-02-07T06:05:25.682Z,540.00
2023-02-07T06:06:25.903Z,539.00
2023-02-07T06:07:25.669Z,536.00
2023-02-07T06:08:25.652Z,535.00
2023-02-07T06:09:25.639Z,534.00
2023-02-07T06:10:25.626Z,535.00
2023-02-07T06:11:25.623Z,537.00
2023-02-07T06:12:25.613Z,535.00
2023-02-07T06:13:25.614Z,534.00
2023-02-07T06:14:25.597Z,534.00
2023-02-07T06:15:25.657Z,537.00
2023-02-07T06:16:25.580Z,540.00
2023-02-07T06:17:25.570Z,547.00
2023-02-07T06:18:25.573Z,554.00
2023-02-07T06:19:25.909Z,568.00
2023-02-07T06:20:25.547Z,566.00
2023-02-07T06:21:31.962Z,565.00
2023-02-07T06:22:26.007Z,564.00
2023-02-07T06:23:25.570Z,563.00
2023-02-07T06:24:25.920Z,566.00
2023-02-07T06:25:25.568Z,567.00
2023-02-07T06:26:25.914Z,569.00
2023-02-07T06:27:25.496Z,568.00
2023-02-07T06:28:25.474Z,569.00
2023-02-07T06:29:25.479Z,568.00
2023-02-07T06:30:25.912Z,564.00
2023-02-07T06:31:26.153Z,564.00
2023-02-07T06:32:25.450Z,565.00
2023-02-07T06:33:25.914Z,563.00
2023-02-07T06:34:25.438Z,565.00
2023-02-07T06:35:25.424Z,566.00
2023-02-07T06:36:25.417Z,567.00
2023-02-07T06:37:25.406Z,567.00
2023-02-07T06:38:25.400Z,573.00
2023-02-07T06:39:25.420Z,575.00
2023-02-07T06:40:25.400Z,576.00
2023-02-07T06:41:25.393Z,576.00
2023-02-07T06:42:25.414Z,576.00
2023-02-07T06:43:25.571Z,580.00
2023-02-07T06:44:25.892Z,580.00
2023-02-07T06:45:25.330Z,579.00
2023-02-07T06:46:25.394Z,579.00
2023-02-07T06:47:25.440Z,578.00
2023-02-07T06:48:26.295Z,582.00
2023-02-07T06:49:25.336Z,592.00
2023-02-07T06:50:25.300Z,624.00
2023-02-07T06:51:25.318Z,650.00
2023-02-07T06:52:25.426Z,646.00
2023-02-07T06:53:25.267Z,654.00
2023-02-07T06:54:25.265Z,661.00
2023-02-07T06:55:25.350Z,677.00
2023-02-07T06:56:25.422Z,678.00
2023-02-07T06:57:25.238Z,693.00
2023-02-07T06:58:25.580Z,738.00
2023-02-07T06:59:25.218Z,759.00
2023-02-07T07:00:25.207Z,780.00
2023-02-07T07:01:25.216Z,784.00
2023-02-07T07:02:25.241Z,794.00
2023-02-07T07:03:25.451Z,800.00
2023-02-07T07:04:25.168Z,807.00
2023-02-07T07:05:25.166Z,835.00
2023-02-07T07:06:25.156Z,846.00
2023-02-07T07:07:25.155Z,855.00
2023-02-07T07:08:25.457Z,879.00
2023-02-07T07:09:25.161Z,891.00
2023-02-07T07:10:25.283Z,913.00
2023-02-07T07:11:25.114Z,920.00
2023-02-07T07:12:25.468Z,929.00
2023-02-07T07:13:25.100Z,830.00
2023-02-07T07:14:25.090Z,774.00
2023-02-07T07:15:25.071Z,742.00
2023-02-07T07:16:25.990Z,718.00
2023-02-07T07:17:25.455Z,700.00
2023-02-07T07:18:25.082Z,677.00
2023-02-07T07:19:25.098Z,673.00
2023-02-07T07:20:25.070Z,651.00
2023-02-07T07:21:25.036Z,647.00
2023-02-07T07:22:25.664Z,638.00
2023-02-07T07:23:25.036Z,657.00
2023-02-07T07:24:25.039Z,651.00
2023-02-07T07:25:25.043Z,623.00
2023-02-07T07:26:25.019Z,619.00
2023-02-07T07:27:25.000Z,613.00
2023-02-07T07:28:24.966Z,608.00
2023-02-07T07:29:24.981Z,632.00
2023-02-07T07:30:24.958Z,610.00
2023-02-07T07:31:24.965Z,600.00
2023-02-07T07:32:33.695Z,594.00
2023-02-07T07:33:24.927Z,599.00
2023-02-07T07:34:24.940Z,591.00
2023-02-07T07:35:24.936Z,606.00
2023-02-07T07:36:24.894Z,638.00
2023-02-07T07:38:24.874Z,578.00
2023-02-07T07:39:24.941Z,584.00
2023-02-07T07:40:24.857Z,591.00
2023-02-07T07:41:24.858Z,598.00
2023-02-07T07:42:24.978Z,608.00
2023-02-07T07:43:24.836Z,634.00
2023-02-07T07:44:25.807Z,696.00
2023-02-07T07:45:24.943Z,688.00
2023-02-07T07:46:24.851Z,689.00
2023-02-07T07:47:24.791Z,698.00
2023-02-07T07:48:25.018Z,717.00
2023-02-07T07:49:24.773Z,722.00
2023-02-07T07:50:24.789Z,724.00
2023-02-07T07:51:24.990Z,727.00
2023-02-07T07:52:24.769Z,729.00
2023-02-07T07:53:24.946Z,730.00
2023-02-07T07:54:24.728Z,729.00
2023-02-07T07:55:25.439Z,731.00
2023-02-07T07:56:24.707Z,731.00
2023-02-07T07:57:24.706Z,734.00
2023-02-07T07:58:24.948Z,734.00
2023-02-07T07:59:24.688Z,734.00
2023-02-07T08:00:24.669Z,734.00
2023-02-07T08:01:24.696Z,734.00
2023-02-07T08:02:24.956Z,733.00
2023-02-07T08:03:24.952Z,732.00
2023-02-07T08:04:24.638Z,730.00
2023-02-07T08:05:24.636Z,731.00
2023-02-07T08:06:24.633Z,730.00
2023-02-07T08:07:24.633Z,732.00
2023-02-07T08:08:24.950Z,730.00
2023-02-07T08:09:24.623Z,732.00
2023-02-07T08:10:24.617Z,732.00
2023-02-07T08:11:24.602Z,732.00
2023-02-07T08:12:24.984Z,732.00
2023-02-07T08:13:27.522Z,737.00
2023-02-07T08:14:24.585Z,738.00
2023-02-07T08:15:24.540Z,738.00
2023-02-07T08:16:24.582Z,738.00
2023-02-07T08:17:25.946Z,739.00
2023-02-07T08:18:24.517Z,741.00
2023-02-07T08:19:24.519Z,742.00
2023-02-07T08:20:24.501Z,742.00
2023-02-07T08:21:24.489Z,740.00
2023-02-07T08:22:24.977Z,740.00
2023-02-07T08:23:24.506Z,739.00
2023-02-07T08:24:24.468Z,739.00
2023-02-07T08:25:24.470Z,737.00
2023-02-07T08:26:24.487Z,735.00
2023-02-07T08:27:24.470Z,730.00
2023-02-07T08:28:24.435Z,729.00
2023-02-07T08:29:24.422Z,731.00
2023-02-07T08:30:24.443Z,734.00
2023-02-07T08:31:24.505Z,731.00
2023-02-07T08:32:24.423Z,728.00
2023-02-07T08:33:24.462Z,728.00
2023-02-07T08:34:24.464Z,730.00
2023-02-07T08:35:24.378Z,738.00
2023-02-07T08:36:24.366Z,740.00
2023-02-07T08:37:24.355Z,738.00
2023-02-07T08:38:24.351Z,734.00
2023-02-07T08:39:24.505Z,730.00
2023-02-07T08:40:24.366Z,732.00
2023-02-07T08:41:24.337Z,733.00
2023-02-07T08:42:24.322Z,710.00
2023-02-07T08:43:24.507Z,720.00
2023-02-07T08:44:24.473Z,748.00
2023-02-07T08:45:24.388Z,763.00
2023-02-07T08:46:25.325Z,793.00
2023-02-07T08:47:24.289Z,804.00
2023-02-07T08:48:24.270Z,811.00
2023-02-07T08:49:24.464Z,822.00
2023-02-07T08:50:24.243Z,840.00
2023-02-07T08:51:24.464Z,858.00
2023-02-07T08:52:25.262Z,871.00
2023-02-07T08:53:24.470Z,881.00
2023-02-07T08:54:24.475Z,889.00
2023-02-07T08:55:24.223Z,896.00
2023-02-07T08:56:24.202Z,911.00
2023-02-07T08:57:24.183Z,931.00
2023-02-07T08:58:24.183Z,958.00
2023-02-07T08:59:24.486Z,973.00
2023-02-07T09:00:24.364Z,983.00
2023-02-07T09:01:25.247Z,994.00
2023-02-07T09:02:24.184Z,1006.00
2023-02-07T09:03:24.146Z,1019.00
2023-02-07T09:04:24.485Z,1030.00
2023-02-07T09:05:24.111Z,1076.00
2023-02-07T09:06:24.104Z,1091.00
2023-02-07T09:07:24.102Z,1094.00
2023-02-07T09:08:24.088Z,1097.00
2023-02-07T09:09:24.477Z,1113.00
2023-02-07T09:10:24.107Z,1139.00
2023-02-07T09:11:24.129Z,1146.00
2023-02-07T09:12:24.078Z,1159.00
2023-02-07T09:13:24.431Z,1171.00
2023-02-07T09:14:24.514Z,1189.00
2023-02-07T09:15:24.037Z,1217.00
2023-02-07T09:16:24.194Z,1221.00
2023-02-07T09:17:24.040Z,1226.00
2023-02-07T09:18:24.005Z,1231.00
2023-02-07T09:19:23.996Z,1240.00
2023-02-07T09:20:24.078Z,1258.00
2023-02-07T09:21:24.000Z,1269.00
2023-02-07T09:22:23.975Z,1280.00
2023-02-07T09:23:23.982Z,1302.00
2023-02-07T09:24:23.969Z,1316.00
2023-02-07T09:25:23.982Z,1324.00
2023-02-07T09:26:23.968Z,1330.00
2023-02-07T09:27:23.943Z,1337.00
2023-02-07T09:28:24.265Z,1347.00
2023-02-07T09:29:23.993Z,1372.00
2023-02-07T09:30:23.903Z,1383.00
2023-02-07T09:31:23.969Z,1406.00
2023-02-07T09:32:23.896Z,1417.00
2023-02-07T09:33:23.920Z,1425.00
2023-02-07T09:34:23.986Z,1433.00
2023-02-07T09:35:23.858Z,1439.00
2023-02-07T09:36:23.908Z,1463.00
2023-02-07T09:37:23.844Z,1497.00
2023-02-07T09:38:23.845Z,1500.00
2023-02-07T09:39:23.993Z,1507.00
2023-02-07T09:40:23.997Z,1516.00
2023-02-07T09:41:23.811Z,1533.00
2023-02-07T09:42:25.104Z,1554.00
2023-02-07T09:43:24.000Z,1564.00
2023-02-07T09:44:24.226Z,1572.00
2023-02-07T09:45:24.084Z,1579.00
2023-02-07T09:46:23.865Z,1590.00
2023-02-07T09:47:23.804Z,1600.00
2023-02-07T09:48:23.746Z,1614.00
2023-02-07T09:49:24.022Z,1629.00
2023-02-07T09:50:23.997Z,1637.00
2023-02-07T09:51:23.726Z,1663.00
2023-02-07T09:52:23.935Z,1678.00
2023-02-07T09:53:23.713Z,1686.00
2023-02-07T09:54:24.009Z,1697.00
2023-02-07T09:55:23.686Z,1712.00
2023-02-07T09:56:23.675Z,1722.00
2023-02-07T09:57:23.685Z,1736.00
2023-02-07T09:58:23.660Z,1745.00
2023-02-07T09:59:24.063Z,1768.00
2023-02-07T10:00:23.645Z,1778.00
2023-02-07T10:01:23.668Z,1791.00
2023-02-07T10:02:23.658Z,1800.00
2023-02-07T10:03:23.998Z,1802.00
2023-02-07T10:04:23.603Z,1816.00
2023-02-07T10:05:23.999Z,1831.00
2023-02-07T10:06:23.590Z,1851.00
2023-02-07T10:07:23.578Z,1863.00
2023-02-07T10:08:28.345Z,1862.00
2023-02-07T10:09:23.559Z,1873.00
2023-02-07T10:10:23.997Z,1888.00
2023-02-07T10:11:23.556Z,1900.00
2023-02-07T10:12:23.534Z,1918.00
2023-02-07T10:13:23.531Z,1934.00
2023-02-07T10:14:23.518Z,1955.00
2023-02-07T10:15:24.047Z,1969.00
2023-02-07T10:16:23.507Z,1969.00
2023-02-07T10:17:31.100Z,1987.00
2023-02-07T10:18:23.514Z,2012.00
2023-02-07T10:19:23.483Z,2023.00
2023-02-07T10:20:23.500Z,2037.00
2023-02-07T10:21:23.455Z,2042.00
2023-02-07T10:22:23.483Z,2053.00
2023-02-07T10:23:23.473Z,2062.00
2023-02-07T10:24:23.430Z,2064.00
2023-02-07T10:25:23.527Z,2071.00
2023-02-07T10:26:23.435Z,2088.00
2023-02-07T10:27:23.406Z,2085.00
2023-02-07T10:28:23.419Z,1899.00
2023-02-07T10:29:23.392Z,1970.00
2023-02-07T10:30:23.560Z,2059.00
2023-02-07T10:31:23.511Z,2062.00
2023-02-07T10:32:23.359Z,2066.00
2023-02-07T10:33:23.347Z,2073.00
2023-02-07T10:34:23.342Z,2078.00
2023-02-07T10:35:23.535Z,2084.00
2023-02-07T10:36:23.510Z,2098.00
2023-02-07T10:37:23.320Z,2102.00
2023-02-07T10:38:26.513Z,2108.00
2023-02-07T10:39:24.288Z,2117.00
2023-02-07T10:40:23.292Z,2122.00
2023-02-07T10:41:23.515Z,2126.00
2023-02-07T10:42:23.272Z,2133.00
2023-02-07T10:43:23.641Z,2127.00
2023-02-07T10:44:23.262Z,2118.00
2023-02-07T10:45:23.255Z,2116.00
2023-02-07T10:46:23.302Z,2110.00
2023-02-07T10:47:23.535Z,2111.00
2023-02-07T10:48:23.222Z,2102.00
2023-02-07T10:49:26.019Z,1409.00
2023-02-07T10:50:29.695Z,1331.00
2023-02-07T10:51:23.521Z,1479.00
2023-02-07T10:52:24.199Z,1584.00
2023-02-07T10:53:23.179Z,1567.00
2023-02-07T10:54:23.166Z,1578.00
2023-02-07T10:55:23.165Z,1703.00
2023-02-07T10:56:23.515Z,1803.00
2023-02-07T10:57:23.142Z,1880.00
2023-02-07T10:58:23.993Z,1887.00
2023-02-07T10:59:23.126Z,1926.00
2023-02-07T11:00:23.121Z,1921.00
2023-02-07T11:01:23.600Z,1918.00
2023-02-07T11:02:23.122Z,1927.00
2023-02-07T11:03:26.758Z,1928.00
2023-02-07T11:04:23.079Z,1927.00
2023-02-07T11:05:23.079Z,1931.00
2023-02-07T11:06:23.059Z,1930.00
2023-02-07T11:07:23.061Z,1937.00
2023-02-07T11:08:23.525Z,1942.00
2023-02-07T11:09:23.047Z,1953.00
2023-02-07T11:10:23.031Z,1955.00
2023-02-07T11:11:23.023Z,1960.00
2023-02-07T11:12:23.038Z,1977.00
2023-02-07T11:13:23.014Z,1993.00
2023-02-07T11:14:22.999Z,1990.00
2023-02-07T11:15:22.994Z,1990.00
2023-02-07T11:16:23.119Z,1990.00
2023-02-07T11:17:23.983Z,1998.00
2023-02-07T11:18:22.967Z,2005.00
2023-02-07T11:19:22.987Z,2018.00
2023-02-07T11:20:22.952Z,2029.00
2023-02-07T11:21:23.030Z,2052.00
2023-02-07T11:22:22.947Z,2066.00
2023-02-07T11:23:22.933Z,2078.00
2023-02-07T11:24:22.915Z,2013.00
2023-02-07T11:25:22.920Z,2105.00
2023-02-07T11:26:23.159Z,2116.00
2023-02-07T11:27:22.893Z,2122.00
2023-02-07T11:28:22.939Z,2154.00
2023-02-07T11:29:22.872Z,2171.00
2023-02-07T11:30:22.863Z,2205.00
2023-02-07T11:31:23.098Z,2233.00
2023-02-07T11:32:24.539Z,1498.00
2023-02-07T11:33:23.103Z,1327.00
2023-02-07T11:34:23.083Z,1149.00
2023-02-07T11:35:23.215Z,1254.00
2023-02-07T11:36:24.109Z,1399.00
2023-02-07T11:37:23.052Z,1469.00
2023-02-07T11:38:23.206Z,1516.00
2023-02-07T11:39:23.057Z,1535.00
2023-02-07T11:40:23.142Z,1650.00
2023-02-07T11:41:23.019Z,1725.00
2023-02-07T11:42:23.035Z,1768.00
2023-02-07T11:43:23.007Z,1832.00
2023-02-07T11:44:23.000Z,1836.00
2023-02-07T11:45:23.002Z,1836.00
2023-02-07T11:46:23.000Z,1842.00
2023-02-07T11:47:23.055Z,1853.00
2023-02-07T11:48:23.039Z,1864.00
2023-02-07T11:49:22.959Z,1871.00
2023-02-07T11:50:22.948Z,1899.00
2023-02-07T11:51:22.961Z,1914.00
2023-02-07T11:52:23.112Z,1922.00
2023-02-07T11:53:22.919Z,1939.00
2023-02-07T11:54:23.637Z,1950.00
2023-02-07T11:55:22.961Z,1956.00
2023-02-07T11:56:22.921Z,1960.00
2023-02-07T11:57:23.041Z,1972.00
2023-02-07T11:58:22.878Z,1993.00
2023-02-07T11:59:22.874Z,2003.00
2023-02-07T12:00:22.889Z,2020.00
2023-02-07T12:01:22.845Z,2038.00
2023-02-07T12:02:23.050Z,2049.00
2023-02-07T12:03:22.847Z,2054.00
2023-02-07T12:04:22.824Z,2066.00
2023-02-07T12:05:22.895Z,2078.00
2023-02-07T12:06:22.816Z,2090.00
2023-02-07T12:07:23.075Z,2107.00
2023-02-07T12:08:23.056Z,2142.00
2023-02-07T12:09:22.790Z,2151.00
2023-02-07T12:10:22.771Z,2157.00
2023-02-07T12:11:22.779Z,2161.00
2023-02-07T12:12:23.064Z,2164.00
2023-02-07T12:13:23.065Z,2176.00
2023-02-07T12:14:22.742Z,2219.00
2023-02-07T12:15:22.732Z,2227.00
2023-02-07T12:16:23.191Z,2237.00
2023-02-07T12:17:22.757Z,2233.00
2023-02-07T12:18:23.056Z,981.00
2023-02-07T12:19:22.724Z,743.00
2023-02-07T12:20:22.688Z,748.00
2023-02-07T12:21:22.679Z,788.00
2023-02-07T12:22:22.674Z,910.00
2023-02-07T12:23:41.266Z,945.00
2023-02-07T12:24:22.656Z,950.00
2023-02-07T12:25:22.641Z,906.00
2023-02-07T12:26:22.636Z,891.00
2023-02-07T12:27:22.636Z,879.00
2023-02-07T12:28:23.128Z,881.00
2023-02-07T12:29:22.606Z,892.00
2023-02-07T12:30:22.598Z,911.00
2023-02-07T12:31:22.742Z,1101.00
2023-02-07T12:32:22.631Z,1179.00
2023-02-07T12:33:23.066Z,1189.00
2023-02-07T12:34:23.074Z,1191.00
2023-02-07T12:35:22.561Z,1203.00
2023-02-07T12:36:22.542Z,1224.00
2023-02-07T12:37:22.537Z,1235.00
2023-02-07T12:38:22.532Z,1250.00
2023-02-07T12:39:22.587Z,1282.00
2023-02-07T12:40:22.511Z,1316.00
2023-02-07T12:41:22.548Z,1331.00
2023-02-07T12:42:22.529Z,1343.00
2023-02-07T12:43:22.527Z,1367.00
2023-02-07T12:44:22.567Z,1383.00
2023-02-07T12:45:22.487Z,1409.00
2023-02-07T12:46:22.470Z,1417.00
2023-02-07T12:47:22.613Z,1435.00
2023-02-07T12:48:22.586Z,1477.00
2023-02-07T12:49:22.577Z,1487.00
2023-02-07T12:50:22.732Z,1489.00
2023-02-07T12:51:22.413Z,1468.00
2023-02-07T12:52:22.409Z,1451.00
2023-02-07T12:53:22.615Z,1479.00
2023-02-07T12:54:22.412Z,1522.00
2023-02-07T12:55:22.436Z,1545.00
2023-02-07T12:56:22.411Z,1549.00
2023-02-07T12:57:22.368Z,1561.00
2023-02-07T12:58:22.572Z,1596.00
2023-02-07T12:59:22.573Z,1469.00
2023-02-07T13:00:22.338Z,1444.00
2023-02-07T13:01:22.401Z,1543.00
2023-02-07T13:02:22.410Z,1558.00
2023-02-07T13:03:22.569Z,1562.00
2023-02-07T13:04:22.574Z,1560.00
2023-02-07T13:05:22.309Z,1560.00
2023-02-07T13:06:22.283Z,1562.00
2023-02-07T13:07:22.276Z,1558.00
2023-02-07T13:08:22.269Z,1549.00
2023-02-07T13:09:22.581Z,1547.00
2023-02-07T13:10:22.295Z,1544.00
2023-02-07T13:11:22.265Z,1539.00
2023-02-07T13:12:22.254Z,1536.00